This is the latest recevied weather packets stored in our database for station/object TA1BE-13. If no packets are shown the sender has not sent any weather packets the latest 10 day(s).
| Time | Temp. | Humidity | Pressure | Rain* | Wind** | Luminosity | Snow |
|---|---|---|---|---|---|---|---|
| 1777570208 | 12.22° C | 79% | 1018 hPa | 0.25 mm | 7.6 m/s, 47° | - | - |
| 1777568403 | 12.22° C | 79% | 1017 hPa | 0.76 mm | 7.6 m/s, 47° | - | - |
| 1777566603 | 12.22° C | 79% | 1017 hPa | 0.25 mm | 7.6 m/s, 47° | - | - |
| 1777564802 | 13.33° C | 79% | 1017 hPa | - | 7.6 m/s, 47° | - | - |
| 1777563002 | 13.33° C | 77% | 1017 hPa | - | 7.6 m/s, 47° | - | - |
| 1777561202 | 13.89° C | 73% | 1017 hPa | - | 7.15 m/s, 58° | - | - |
| 1777458603 | 16.67° C | 54% | 1019 hPa | - | 3.13 m/s, 76° | - | - |
| 1777456804 | 16.67° C | 54% | 1019 hPa | - | 3.13 m/s, 76° | - | - |
| 1777455004 | 13.33° C | 59% | 1019 hPa | - | 2.68 m/s, 86° | - | - |
| 1777453204 | 13.33° C | 59% | 1019 hPa | - | 2.68 m/s, 86° | - | - |
| 1777451405 | 13.33° C | 59% | 1020 hPa | - | 2.68 m/s, 86° | - | - |
| 1777449604 | 13.33° C | 59% | 1020 hPa | - | 2.68 m/s, 86° | - | - |
| 1777410005 | 8.33° C | 83% | 1020 hPa | - | 3.13 m/s, 52° | - | - |
| 1777408204 | 8.33° C | 78% | 1020 hPa | - | 3.58 m/s, 50° | - | - |
| 1777406404 | 8.33° C | 78% | 1020 hPa | - | 3.58 m/s, 50° | - | - |
| 1777404604 | 8.33° C | 78% | 1020 hPa | - | 3.58 m/s, 50° | - | - |
| 1777402803 | 8.33° C | 78% | 1020 hPa | - | 3.58 m/s, 50° | - | - |
| 1777401003 | 8.33° C | 78% | 1020 hPa | - | 3.58 m/s, 50° | - | - |
| 1777399203 | 9.44° C | 75% | 1019 hPa | - | 3.58 m/s, 50° | - | - |
| 1777397403 | 9.44° C | 71% | 1019 hPa | - | 3.58 m/s, 50° | - | - |
| 1777395603 | 10.56° C | 65% | 1019 hPa | - | 3.58 m/s, 54° | - | - |
| 1777393803 | 12.78° C | 58% | 1019 hPa | - | 4.02 m/s, 60° | - | - |
| 1777392005 | 12.78° C | 58% | 1018 hPa | - | 4.02 m/s, 60° | - | - |
| 1777390203 | 14.44° C | 53% | 1018 hPa | - | 4.92 m/s, 66° | - | - |
| 1777388403 | 14.44° C | 53% | 1018 hPa | - | 4.92 m/s, 66° | - | - |
* Rain latest hour (hover to see other rain measurements)
** Current wind speed in m/s (hover to see current wind gust speed)